createdAt,value
2023-05-14T00:00:15.347Z,1868.00
2023-05-14T00:01:15.312Z,1828.00
2023-05-14T00:02:15.411Z,1836.00
2023-05-14T00:03:16.407Z,1828.00
2023-05-14T00:04:15.326Z,1836.00
2023-05-14T00:05:15.788Z,1856.00
2023-05-14T00:06:15.274Z,1889.00
2023-05-14T00:07:15.875Z,1890.00
2023-05-14T00:08:15.255Z,1879.00
2023-05-14T00:09:15.283Z,1841.00
2023-05-14T00:10:15.273Z,1847.00
2023-05-14T00:11:15.262Z,1842.00
2023-05-14T00:12:15.257Z,1823.00
2023-05-14T00:13:15.210Z,1819.00
2023-05-14T00:14:15.251Z,1823.00
2023-05-14T00:15:15.214Z,1812.00
2023-05-14T00:16:15.264Z,1853.00
2023-05-14T00:17:15.191Z,1812.00
2023-05-14T00:18:15.806Z,1818.00
2023-05-14T00:19:15.225Z,1803.00
2023-05-14T00:20:15.315Z,1790.00
2023-05-14T00:21:15.193Z,1801.00
2023-05-14T00:22:15.204Z,1788.00
2023-05-14T00:23:15.157Z,1777.00
2023-05-14T00:24:15.174Z,1792.00
2023-05-14T00:25:15.143Z,1794.00
2023-05-14T00:26:15.167Z,1780.00
2023-05-14T00:27:15.161Z,1763.00
2023-05-14T00:28:15.772Z,1758.00
2023-05-14T00:29:15.138Z,1719.00
2023-05-14T00:30:15.294Z,1704.00
2023-05-14T00:31:15.119Z,1723.00
2023-05-14T00:32:15.087Z,1711.00
2023-05-14T00:33:15.115Z,1709.00
2023-05-14T00:34:15.121Z,1710.00
2023-05-14T00:35:18.280Z,1706.00
2023-05-14T00:36:16.958Z,1729.00
2023-05-14T00:37:17.810Z,1723.00
2023-05-14T00:38:15.062Z,1704.00
2023-05-14T00:39:15.077Z,1697.00
2023-05-14T00:40:15.045Z,1675.00
2023-05-14T00:41:15.046Z,1666.00
2023-05-14T00:42:15.062Z,1645.00
2023-05-14T00:43:15.008Z,1643.00
2023-05-14T00:44:15.028Z,1650.00
2023-05-14T00:45:15.810Z,1659.00
2023-05-14T00:46:15.047Z,1659.00
2023-05-14T00:47:15.002Z,1646.00
2023-05-14T00:48:14.996Z,1655.00
2023-05-14T00:49:14.983Z,1624.00
2023-05-14T00:50:15.332Z,1590.00
2023-05-14T00:51:14.980Z,1582.00
2023-05-14T00:52:14.970Z,1596.00
2023-05-14T00:53:14.967Z,1600.00
2023-05-14T00:54:14.958Z,1570.00
2023-05-14T00:55:14.940Z,1550.00
2023-05-14T00:56:14.941Z,1558.00
2023-05-14T00:57:14.917Z,1551.00
2023-05-14T00:58:14.935Z,1567.00
2023-05-14T00:59:14.918Z,1550.00
2023-05-14T01:00:15.321Z,1537.00
2023-05-14T01:01:14.879Z,1544.00
2023-05-14T01:02:15.818Z,1513.00
2023-05-14T01:03:15.034Z,1517.00
2023-05-14T01:04:14.904Z,1528.00
2023-05-14T01:05:14.873Z,1518.00
2023-05-14T01:06:14.856Z,1535.00
2023-05-14T01:07:14.869Z,1519.00
2023-05-14T01:08:14.853Z,1527.00
2023-05-14T01:09:14.889Z,1509.00
2023-05-14T01:10:15.307Z,1514.00
2023-05-14T01:11:14.859Z,1523.00
2023-05-14T01:12:14.818Z,1511.00
2023-05-14T01:13:14.837Z,1495.00
2023-05-14T01:14:14.817Z,1526.00
2023-05-14T01:15:14.801Z,1513.00
2023-05-14T01:16:14.922Z,1525.00
2023-05-14T01:17:14.783Z,1523.00
2023-05-14T01:18:14.821Z,1508.00
2023-05-14T01:19:14.878Z,1458.00
2023-05-14T01:20:14.812Z,1456.00
2023-05-14T01:21:14.757Z,1459.00
2023-05-14T01:22:14.759Z,1487.00
2023-05-14T01:23:14.770Z,1477.00
2023-05-14T01:24:14.749Z,1490.00
2023-05-14T01:25:14.751Z,1495.00
2023-05-14T01:26:14.740Z,1471.00
2023-05-14T01:27:14.712Z,1481.00
2023-05-14T01:28:14.705Z,1477.00
2023-05-14T01:29:14.718Z,1480.00
2023-05-14T01:30:14.827Z,1487.00
2023-05-14T01:31:14.694Z,1504.00
2023-05-14T01:32:14.709Z,1544.00
2023-05-14T01:33:14.696Z,1593.00
2023-05-14T01:34:14.672Z,1614.00
2023-05-14T01:35:14.663Z,1618.00
2023-05-14T01:36:14.650Z,1620.00
2023-05-14T01:37:14.666Z,1621.00
2023-05-14T01:38:14.619Z,1620.00
2023-05-14T01:39:14.636Z,1592.00
2023-05-14T01:40:14.838Z,1604.00
2023-05-14T01:41:14.647Z,1589.00
2023-05-14T01:42:14.591Z,1582.00
2023-05-14T01:43:14.682Z,1568.00
2023-05-14T01:44:14.603Z,1562.00
2023-05-14T01:45:14.619Z,1551.00
2023-05-14T01:46:14.630Z,1555.00
2023-05-14T01:47:14.571Z,1552.00
2023-05-14T01:48:14.579Z,1550.00
2023-05-14T01:49:14.586Z,1530.00
2023-05-14T01:50:14.850Z,1527.00
2023-05-14T01:51:14.545Z,1510.00
2023-05-14T01:52:14.578Z,1522.00
2023-05-14T01:53:14.570Z,1523.00
2023-05-14T01:54:14.556Z,1527.00
2023-05-14T01:55:14.840Z,1519.00
2023-05-14T01:56:14.535Z,1504.00
2023-05-14T01:57:16.532Z,1482.00
2023-05-14T01:58:14.580Z,1493.00
2023-05-14T01:59:15.314Z,1509.00
2023-05-14T02:00:14.809Z,1496.00
2023-05-14T02:01:14.730Z,1502.00
2023-05-14T02:02:14.650Z,1501.00
2023-05-14T02:03:14.694Z,1522.00
2023-05-14T02:04:14.732Z,1515.00
2023-05-14T02:05:14.831Z,1524.00
2023-05-14T02:06:14.780Z,1518.00
2023-05-14T02:07:14.786Z,1537.00
2023-05-14T02:08:14.815Z,1536.00
2023-05-14T02:09:14.857Z,1536.00
2023-05-14T02:10:14.879Z,1542.00
2023-05-14T02:11:14.907Z,1538.00
2023-05-14T02:12:14.911Z,1524.00
2023-05-14T02:13:14.963Z,1545.00
2023-05-14T02:14:16.861Z,1558.00
2023-05-14T02:15:18.320Z,1553.00
2023-05-14T02:16:15.069Z,1595.00
2023-05-14T02:17:14.983Z,1585.00
2023-05-14T02:18:14.972Z,1574.00
2023-05-14T02:19:15.894Z,1579.00
2023-05-14T02:20:15.329Z,1567.00
2023-05-14T02:21:14.954Z,1541.00
2023-05-14T02:22:14.973Z,1552.00
2023-05-14T02:23:14.935Z,1567.00
2023-05-14T02:24:14.936Z,1562.00
2023-05-14T02:25:15.362Z,1543.00
2023-05-14T02:26:14.915Z,1552.00
2023-05-14T02:27:14.909Z,1560.00
2023-05-14T02:28:14.911Z,1546.00
2023-05-14T02:29:14.920Z,1547.00
2023-05-14T02:30:15.319Z,1535.00
2023-05-14T02:31:15.899Z,1524.00
2023-05-14T02:32:14.911Z,1502.00
2023-05-14T02:33:15.900Z,1488.00
2023-05-14T02:34:14.860Z,1484.00
2023-05-14T02:35:15.365Z,1469.00
2023-05-14T02:36:14.847Z,1466.00
2023-05-14T02:37:14.879Z,1458.00
2023-05-14T02:38:14.826Z,1436.00
2023-05-14T02:39:14.850Z,1443.00
2023-05-14T02:40:14.800Z,1438.00
2023-05-14T02:41:14.842Z,1433.00
2023-05-14T02:42:14.835Z,1441.00
2023-05-14T02:43:14.781Z,1432.00
2023-05-14T02:44:14.812Z,1425.00
2023-05-14T02:45:14.801Z,1419.00
2023-05-14T02:46:14.869Z,1411.00
2023-05-14T02:47:14.778Z,1437.00
2023-05-14T02:48:14.754Z,1434.00
2023-05-14T02:49:14.807Z,1432.00
2023-05-14T02:50:14.749Z,1422.00
2023-05-14T02:51:14.825Z,1419.00
2023-05-14T02:52:14.724Z,1426.00
2023-05-14T02:53:14.715Z,1457.00
2023-05-14T02:54:16.412Z,1436.00
2023-05-14T02:55:14.718Z,1406.00
2023-05-14T02:56:14.825Z,1422.00
2023-05-14T02:57:14.688Z,1441.00
2023-05-14T02:58:14.704Z,1440.00
2023-05-14T02:59:14.727Z,1436.00
2023-05-14T03:00:14.689Z,1440.00
2023-05-14T03:01:14.880Z,1452.00
2023-05-14T03:02:14.773Z,1454.00
2023-05-14T03:03:15.349Z,1453.00
2023-05-14T03:04:14.803Z,1451.00
2023-05-14T03:05:14.860Z,1453.00
2023-05-14T03:06:15.350Z,1447.00
2023-05-14T03:07:14.934Z,1451.00
2023-05-14T03:08:14.934Z,1457.00
2023-05-14T03:09:14.991Z,1456.00
2023-05-14T03:10:15.020Z,1428.00
2023-05-14T03:11:15.336Z,1424.00
2023-05-14T03:12:15.065Z,1428.00
2023-05-14T03:13:15.137Z,1452.00
2023-05-14T03:14:15.151Z,1425.00
2023-05-14T03:15:15.177Z,1467.00
2023-05-14T03:16:15.357Z,1438.00
2023-05-14T03:17:15.256Z,1456.00
2023-05-14T03:18:15.277Z,1457.00
2023-05-14T03:19:15.412Z,1473.00
2023-05-14T03:20:15.319Z,1439.00
2023-05-14T03:21:15.382Z,1463.00
2023-05-14T03:22:15.409Z,1447.00
2023-05-14T03:23:15.432Z,1433.00
2023-05-14T03:24:15.457Z,1431.00
2023-05-14T03:25:15.507Z,1433.00
2023-05-14T03:26:15.854Z,1437.00
2023-05-14T03:27:15.548Z,1440.00
2023-05-14T03:28:15.606Z,1451.00
2023-05-14T03:29:15.639Z,1446.00
2023-05-14T03:30:15.673Z,1445.00
2023-05-14T03:31:15.741Z,1444.00
2023-05-14T03:32:15.785Z,1439.00
2023-05-14T03:33:15.769Z,1438.00
2023-05-14T03:34:15.884Z,1430.00
2023-05-14T03:35:15.842Z,1437.00
2023-05-14T03:36:15.893Z,1430.00
2023-05-14T03:37:15.911Z,1433.00
2023-05-14T03:38:15.980Z,1428.00
2023-05-14T03:39:15.970Z,1433.00
2023-05-14T03:40:16.024Z,1426.00
2023-05-14T03:41:16.394Z,1434.00
2023-05-14T03:42:16.111Z,1437.00
2023-05-14T03:43:16.138Z,1436.00
2023-05-14T03:44:16.170Z,1441.00
2023-05-14T03:45:16.195Z,1450.00
2023-05-14T03:46:16.364Z,1452.00
2023-05-14T03:47:16.262Z,1469.00
2023-05-14T03:48:16.398Z,1447.00
2023-05-14T03:49:16.347Z,1465.00
2023-05-14T03:50:16.432Z,1486.00
2023-05-14T03:51:16.843Z,1482.00
2023-05-14T03:52:16.411Z,1493.00
2023-05-14T03:53:16.432Z,1491.00
2023-05-14T03:54:16.451Z,1481.00
2023-05-14T03:55:16.496Z,1489.00
2023-05-14T03:56:16.869Z,1495.00
2023-05-14T03:57:16.576Z,1469.00
2023-05-14T03:58:16.625Z,1473.00
2023-05-14T03:59:16.673Z,1485.00
2023-05-14T04:00:16.682Z,1475.00
2023-05-14T04:01:16.750Z,1468.00
2023-05-14T04:02:17.355Z,1462.00
2023-05-14T04:03:16.871Z,1463.00
2023-05-14T04:04:16.778Z,1473.00
2023-05-14T04:05:16.816Z,1461.00
2023-05-14T04:06:16.848Z,1452.00
2023-05-14T04:07:16.871Z,1461.00
2023-05-14T04:08:16.920Z,1446.00
2023-05-14T04:09:16.922Z,1462.00
2023-05-14T04:10:16.952Z,1445.00
2023-05-14T04:11:17.019Z,1436.00
2023-05-14T04:12:17.032Z,1434.00
2023-05-14T04:13:17.056Z,1445.00
2023-05-14T04:14:17.113Z,1407.00
2023-05-14T04:15:17.135Z,1402.00
2023-05-14T04:16:17.246Z,1415.00
2023-05-14T04:17:17.233Z,1400.00
2023-05-14T04:18:17.268Z,1377.00
2023-05-14T04:19:17.385Z,1386.00
2023-05-14T04:20:17.321Z,1389.00
2023-05-14T04:21:17.357Z,1402.00
2023-05-14T04:22:17.398Z,1407.00
2023-05-14T04:23:17.418Z,1425.00
2023-05-14T04:24:17.446Z,1394.00
2023-05-14T04:25:17.492Z,1378.00
2023-05-14T04:26:17.514Z,1374.00
2023-05-14T04:27:17.560Z,1369.00
2023-05-14T04:28:17.561Z,1365.00
2023-05-14T04:29:17.647Z,1365.00
2023-05-14T04:30:17.678Z,1352.00
2023-05-14T04:31:17.727Z,1356.00
2023-05-14T04:32:17.771Z,1355.00
2023-05-14T04:33:17.791Z,1348.00
2023-05-14T04:34:17.843Z,1334.00
2023-05-14T04:35:17.904Z,1329.00
2023-05-14T04:36:18.365Z,1330.00
2023-05-14T04:37:17.937Z,1321.00
2023-05-14T04:38:18.012Z,1325.00
2023-05-14T04:39:18.048Z,1320.00
2023-05-14T04:40:18.108Z,1314.00
2023-05-14T04:41:18.381Z,1323.00
2023-05-14T04:42:18.144Z,1319.00
2023-05-14T04:43:18.174Z,1326.00
2023-05-14T04:44:18.234Z,1327.00
2023-05-14T04:45:18.307Z,1308.00
2023-05-14T04:46:18.353Z,1279.00
2023-05-14T04:47:18.369Z,1247.00
2023-05-14T04:48:18.372Z,1226.00
2023-05-14T04:49:18.432Z,1235.00
2023-05-14T04:50:18.505Z,1226.00
2023-05-14T04:51:18.496Z,1236.00
2023-05-14T04:52:18.623Z,1180.00
2023-05-14T04:53:18.588Z,1175.00
2023-05-14T04:54:18.671Z,1173.00
2023-05-14T04:55:18.744Z,1171.00
2023-05-14T04:56:18.761Z,1185.00
2023-05-14T04:57:18.795Z,1169.00
2023-05-14T04:58:18.847Z,1193.00
2023-05-14T04:59:18.866Z,1206.00
2023-05-14T05:00:18.906Z,1204.00
2023-05-14T05:01:19.026Z,1181.00
2023-05-14T05:02:19.016Z,1202.00
2023-05-14T05:03:19.159Z,1202.00
2023-05-14T05:04:19.208Z,1201.00
2023-05-14T05:05:19.164Z,1208.00
2023-05-14T05:06:19.203Z,1177.00
2023-05-14T05:07:19.236Z,1192.00
2023-05-14T05:08:19.311Z,1208.00
2023-05-14T05:09:19.315Z,1201.00
2023-05-14T05:10:19.370Z,1224.00
2023-05-14T05:11:19.402Z,1222.00
2023-05-14T05:12:19.442Z,1243.00
2023-05-14T05:13:19.478Z,1242.00
2023-05-14T05:14:19.521Z,1242.00
2023-05-14T05:15:19.545Z,1230.00
2023-05-14T05:16:19.616Z,1244.00
2023-05-14T05:17:19.701Z,1245.00
2023-05-14T05:18:20.378Z,1234.00
2023-05-14T05:19:22.412Z,1240.00
2023-05-14T05:20:20.825Z,1241.00
2023-05-14T05:21:19.745Z,1242.00
2023-05-14T05:22:19.754Z,1239.00
2023-05-14T05:23:19.761Z,1243.00
2023-05-14T05:24:19.766Z,1223.00
2023-05-14T05:25:19.750Z,1201.00
2023-05-14T05:26:19.711Z,1183.00
2023-05-14T05:27:19.713Z,1207.00
2023-05-14T05:28:19.692Z,1190.00
2023-05-14T05:29:19.690Z,1212.00
2023-05-14T05:30:20.365Z,1190.00
2023-05-14T05:31:20.043Z,1174.00
2023-05-14T05:32:19.784Z,1165.00
2023-05-14T05:33:19.833Z,1157.00
2023-05-14T05:34:19.871Z,1154.00
2023-05-14T05:35:19.916Z,1166.00
2023-05-14T05:36:19.944Z,1162.00
2023-05-14T05:37:20.022Z,1147.00
2023-05-14T05:38:20.067Z,1133.00
2023-05-14T05:39:20.124Z,1131.00
2023-05-14T05:40:20.143Z,1122.00
2023-05-14T05:41:20.197Z,1106.00
2023-05-14T05:42:20.220Z,1108.00
2023-05-14T05:43:20.267Z,1116.00
2023-05-14T05:44:20.307Z,1142.00
2023-05-14T05:45:20.354Z,1140.00
2023-05-14T05:46:20.452Z,1163.00
2023-05-14T05:47:20.514Z,1159.00
2023-05-14T05:48:20.500Z,1172.00
2023-05-14T05:49:20.564Z,1174.00
2023-05-14T05:50:20.706Z,1188.00
2023-05-14T05:51:20.680Z,1200.00
2023-05-14T05:52:20.718Z,1210.00
2023-05-14T05:53:20.732Z,1219.00
2023-05-14T05:54:20.784Z,1221.00
2023-05-14T05:55:20.827Z,1226.00
2023-05-14T05:56:20.897Z,1226.00
2023-05-14T05:57:20.956Z,1228.00
2023-05-14T05:58:20.981Z,1233.00
2023-05-14T05:59:21.007Z,1235.00
2023-05-14T06:00:21.168Z,1243.00
2023-05-14T06:01:21.145Z,1232.00
2023-05-14T06:02:21.207Z,1249.00
2023-05-14T06:03:21.242Z,1268.00
2023-05-14T06:04:21.247Z,1250.00
2023-05-14T06:05:21.305Z,1236.00
2023-05-14T06:06:21.324Z,1215.00
2023-05-14T06:07:21.398Z,1209.00
2023-05-14T06:08:21.450Z,1194.00
2023-05-14T06:09:21.481Z,1205.00
2023-05-14T06:10:21.624Z,1204.00
2023-05-14T06:11:21.558Z,1173.00
2023-05-14T06:12:21.588Z,1201.00
2023-05-14T06:13:21.692Z,1192.00
2023-05-14T06:14:21.734Z,1187.00
2023-05-14T06:15:21.756Z,1172.00
2023-05-14T06:16:21.828Z,1157.00
2023-05-14T06:17:21.891Z,1137.00
2023-05-14T06:18:21.924Z,1121.00
2023-05-14T06:19:21.935Z,1115.00
2023-05-14T06:20:22.167Z,1112.00
2023-05-14T06:21:22.407Z,1094.00
2023-05-14T06:22:22.111Z,1105.00
2023-05-14T06:23:22.150Z,1110.00
2023-05-14T06:24:22.223Z,1120.00
2023-05-14T06:25:22.217Z,1101.00
2023-05-14T06:26:22.407Z,1120.00
2023-05-14T06:27:22.297Z,1124.00
2023-05-14T06:28:22.398Z,1114.00
2023-05-14T06:29:22.434Z,1139.00
2023-05-14T06:30:22.743Z,1143.00
2023-05-14T06:31:22.540Z,1150.00
2023-05-14T06:32:22.670Z,1170.00
2023-05-14T06:33:22.653Z,1161.00
2023-05-14T06:34:22.680Z,1169.00
2023-05-14T06:35:22.731Z,1177.00
2023-05-14T06:36:22.767Z,1184.00
2023-05-14T06:37:22.869Z,1188.00
2023-05-14T06:38:22.869Z,1173.00
2023-05-14T06:39:22.947Z,1132.00
2023-05-14T06:40:23.421Z,1177.00
2023-05-14T06:41:23.036Z,1178.00
2023-05-14T06:42:23.092Z,1172.00
2023-05-14T06:43:23.158Z,1169.00
2023-05-14T06:44:23.199Z,1159.00
2023-05-14T06:45:23.293Z,1139.00
2023-05-14T06:46:23.421Z,1113.00
2023-05-14T06:47:23.369Z,1085.00
2023-05-14T06:48:23.492Z,1059.00
2023-05-14T06:49:23.436Z,1021.00
2023-05-14T06:50:23.855Z,1051.00
2023-05-14T06:51:23.546Z,1050.00
2023-05-14T06:52:23.674Z,1075.00
2023-05-14T06:53:23.637Z,1059.00
2023-05-14T06:54:23.671Z,1058.00
2023-05-14T06:55:23.711Z,1064.00
2023-05-14T06:56:23.802Z,1054.00
2023-05-14T06:57:23.822Z,1051.00
2023-05-14T06:58:23.861Z,1043.00
2023-05-14T06:59:23.939Z,1040.00
2023-05-14T07:00:24.159Z,1026.00
2023-05-14T07:01:24.051Z,1063.00
2023-05-14T07:02:24.101Z,1067.00
2023-05-14T07:03:24.097Z,1081.00
2023-05-14T07:04:24.222Z,1067.00
2023-05-14T07:05:24.239Z,1082.00
2023-05-14T07:06:24.271Z,1055.00
2023-05-14T07:07:24.296Z,1057.00
2023-05-14T07:08:24.373Z,1056.00
2023-05-14T07:09:24.391Z,1044.00
2023-05-14T07:10:24.554Z,1040.00
2023-05-14T07:11:24.513Z,1018.00
2023-05-14T07:12:24.547Z,987.00
2023-05-14T07:13:25.761Z,992.00
2023-05-14T07:14:24.545Z,990.00
2023-05-14T07:15:24.549Z,969.00
2023-05-14T07:16:24.539Z,980.00
2023-05-14T07:17:24.691Z,989.00
2023-05-14T07:18:24.540Z,994.00
2023-05-14T07:19:24.522Z,986.00
2023-05-14T07:20:24.718Z,984.00
2023-05-14T07:21:24.522Z,994.00
2023-05-14T07:22:24.486Z,1006.00
2023-05-14T07:23:24.519Z,1010.00
2023-05-14T07:24:24.506Z,1032.00
2023-05-14T07:25:24.468Z,1017.00
2023-05-14T07:26:24.545Z,1036.00
2023-05-14T07:27:24.444Z,1031.00
2023-05-14T07:28:24.468Z,1021.00
2023-05-14T07:29:24.451Z,1040.00
2023-05-14T07:30:24.740Z,1019.00
2023-05-14T07:31:24.454Z,1014.00
2023-05-14T07:32:24.435Z,994.00
2023-05-14T07:33:24.439Z,991.00
2023-05-14T07:34:24.411Z,979.00
2023-05-14T07:35:24.426Z,966.00
2023-05-14T07:36:24.420Z,964.00
2023-05-14T07:37:24.389Z,960.00
2023-05-14T07:38:24.363Z,977.00
2023-05-14T07:39:24.377Z,983.00
2023-05-14T07:40:24.497Z,973.00
2023-05-14T07:41:24.348Z,974.00
2023-05-14T07:42:35.065Z,972.00
2023-05-14T07:43:25.358Z,973.00
2023-05-14T07:44:24.345Z,974.00
2023-05-14T07:45:24.331Z,945.00
2023-05-14T07:46:24.326Z,972.00
2023-05-14T07:47:24.379Z,980.00
2023-05-14T07:48:24.366Z,974.00
2023-05-14T07:49:24.352Z,953.00
2023-05-14T07:50:24.516Z,953.00
2023-05-14T07:51:24.284Z,953.00
2023-05-14T07:52:24.310Z,932.00
2023-05-14T07:53:24.291Z,911.00
2023-05-14T07:54:24.326Z,913.00
2023-05-14T07:55:24.367Z,929.00
2023-05-14T07:56:24.417Z,904.00
2023-05-14T07:57:24.447Z,918.00
2023-05-14T07:58:24.459Z,923.00
2023-05-14T07:59:24.521Z,942.00
2023-05-14T08:00:24.746Z,922.00
2023-05-14T08:01:24.603Z,880.00
2023-05-14T08:02:25.065Z,861.00
2023-05-14T08:03:24.851Z,813.00
2023-05-14T08:04:24.796Z,800.00
2023-05-14T08:05:24.763Z,787.00
2023-05-14T08:06:24.797Z,809.00
2023-05-14T08:07:24.868Z,840.00
2023-05-14T08:08:24.883Z,815.00
2023-05-14T08:09:24.927Z,825.00
2023-05-14T08:10:25.160Z,798.00
2023-05-14T08:11:25.014Z,786.00
2023-05-14T08:12:25.059Z,775.00
2023-05-14T08:13:25.075Z,732.00
2023-05-14T08:14:25.131Z,740.00
2023-05-14T08:15:27.573Z,725.00
2023-05-14T08:16:25.202Z,765.00
2023-05-14T08:17:25.493Z,749.00
2023-05-14T08:18:25.187Z,763.00
2023-05-14T08:19:25.138Z,810.00
2023-05-14T08:20:25.511Z,792.00
2023-05-14T08:21:25.148Z,777.00
2023-05-14T08:22:25.144Z,799.00
2023-05-14T08:23:25.109Z,805.00
2023-05-14T08:24:25.140Z,806.00
2023-05-14T08:25:25.125Z,830.00
2023-05-14T08:26:25.089Z,823.00
2023-05-14T08:27:25.110Z,829.00
2023-05-14T08:28:25.086Z,826.00
2023-05-14T08:29:25.077Z,813.00
2023-05-14T08:30:25.449Z,810.00
2023-05-14T08:31:25.181Z,821.00
2023-05-14T08:32:25.068Z,834.00
2023-05-14T08:33:25.038Z,816.00
2023-05-14T08:34:25.058Z,821.00
2023-05-14T08:35:25.043Z,811.00
2023-05-14T08:36:25.035Z,846.00
2023-05-14T08:37:25.023Z,762.00
2023-05-14T08:38:25.021Z,689.00
2023-05-14T08:39:24.995Z,664.00
2023-05-14T08:40:25.286Z,666.00
2023-05-14T08:41:25.021Z,684.00
2023-05-14T08:42:24.987Z,684.00
2023-05-14T08:43:25.049Z,655.00
2023-05-14T08:44:24.950Z,634.00
2023-05-14T08:45:24.938Z,615.00
2023-05-14T08:46:24.947Z,608.00
2023-05-14T08:47:24.981Z,611.00
2023-05-14T08:48:24.968Z,596.00
2023-05-14T08:49:24.940Z,605.00
2023-05-14T08:50:25.240Z,601.00
2023-05-14T08:51:24.915Z,562.00
2023-05-14T08:52:24.952Z,558.00
2023-05-14T08:53:24.886Z,573.00
2023-05-14T08:54:24.921Z,573.00
2023-05-14T08:55:24.861Z,556.00
2023-05-14T08:56:24.916Z,547.00
2023-05-14T08:57:24.892Z,554.00
2023-05-14T08:58:24.888Z,522.00
2023-05-14T08:59:24.847Z,510.00
2023-05-14T09:00:25.169Z,519.00
2023-05-14T09:01:24.934Z,514.00
2023-05-14T09:02:25.093Z,511.00
2023-05-14T09:03:24.995Z,511.00
2023-05-14T09:04:24.994Z,519.00
2023-05-14T09:05:25.046Z,519.00
2023-05-14T09:06:25.086Z,509.00
2023-05-14T09:07:25.102Z,517.00
2023-05-14T09:08:25.125Z,505.00
2023-05-14T09:09:25.172Z,500.00
2023-05-14T09:10:25.553Z,500.00
2023-05-14T09:11:25.229Z,500.00
2023-05-14T09:12:25.267Z,499.00
2023-05-14T09:13:27.621Z,502.00
2023-05-14T09:14:25.356Z,524.00
2023-05-14T09:15:25.297Z,538.00
2023-05-14T09:16:25.301Z,520.00
2023-05-14T09:17:25.306Z,539.00
2023-05-14T09:18:25.399Z,547.00
2023-05-14T09:19:25.244Z,554.00
2023-05-14T09:20:25.692Z,551.00
2023-05-14T09:21:25.265Z,545.00
2023-05-14T09:22:25.258Z,509.00
2023-05-14T09:23:25.230Z,531.00
2023-05-14T09:24:25.240Z,541.00
2023-05-14T09:25:25.236Z,537.00
2023-05-14T09:26:25.223Z,544.00
2023-05-14T09:27:25.225Z,553.00
2023-05-14T09:28:25.189Z,546.00
2023-05-14T09:29:25.193Z,530.00
2023-05-14T09:30:25.474Z,515.00
2023-05-14T09:31:25.225Z,512.00
2023-05-14T09:32:25.241Z,500.00
2023-05-14T09:33:25.175Z,508.00
2023-05-14T09:34:25.130Z,516.00
2023-05-14T09:35:25.195Z,539.00
2023-05-14T09:36:25.156Z,532.00
2023-05-14T09:37:25.125Z,546.00
2023-05-14T09:38:25.127Z,545.00
2023-05-14T09:39:25.127Z,553.00
2023-05-14T09:40:25.531Z,530.00
2023-05-14T09:41:25.094Z,519.00
2023-05-14T09:42:25.469Z,524.00
2023-05-14T09:43:25.090Z,529.00
2023-05-14T09:44:25.102Z,533.00
2023-05-14T09:45:25.094Z,554.00
2023-05-14T09:46:25.092Z,559.00
2023-05-14T09:47:25.233Z,570.00
2023-05-14T09:48:25.090Z,561.00
2023-05-14T09:49:25.053Z,553.00
2023-05-14T09:50:25.290Z,546.00
2023-05-14T09:51:25.047Z,551.00
2023-05-14T09:52:25.037Z,556.00
2023-05-14T09:53:25.056Z,567.00
2023-05-14T09:54:25.006Z,531.00
2023-05-14T09:55:25.007Z,522.00
2023-05-14T09:56:24.985Z,500.00
2023-05-14T09:57:25.027Z,497.00
2023-05-14T09:58:25.049Z,515.00
2023-05-14T09:59:25.089Z,550.00
2023-05-14T10:00:25.191Z,577.00
2023-05-14T10:01:25.030Z,569.00
2023-05-14T10:02:24.974Z,571.00
2023-05-14T10:03:24.973Z,560.00
2023-05-14T10:04:24.970Z,568.00
2023-05-14T10:05:24.952Z,600.00
2023-05-14T10:06:24.940Z,589.00
2023-05-14T10:07:24.925Z,592.00
2023-05-14T10:08:24.929Z,585.00
2023-05-14T10:09:24.903Z,569.00
2023-05-14T10:10:25.141Z,562.00
2023-05-14T10:11:24.914Z,570.00
2023-05-14T10:12:24.924Z,576.00
2023-05-14T10:13:24.906Z,572.00
2023-05-14T10:14:24.918Z,565.00
2023-05-14T10:15:25.005Z,573.00
2023-05-14T10:16:25.012Z,579.00
2023-05-14T10:17:25.036Z,559.00
2023-05-14T10:18:25.005Z,534.00
2023-05-14T10:19:25.142Z,537.00
2023-05-14T10:20:25.474Z,552.00
2023-05-14T10:21:25.107Z,564.00
2023-05-14T10:22:25.127Z,579.00
2023-05-14T10:23:25.141Z,560.00
2023-05-14T10:24:25.185Z,534.00
2023-05-14T10:25:25.233Z,550.00
2023-05-14T10:26:25.228Z,554.00
2023-05-14T10:27:25.226Z,531.00
2023-05-14T10:28:25.285Z,519.00
2023-05-14T10:29:25.319Z,517.00
2023-05-14T10:30:25.808Z,517.00
2023-05-14T10:31:25.432Z,506.00
2023-05-14T10:32:25.378Z,519.00
2023-05-14T10:33:25.387Z,529.00
2023-05-14T10:34:25.419Z,541.00
2023-05-14T10:35:25.501Z,532.00
2023-05-14T10:36:25.468Z,520.00
2023-05-14T10:37:25.543Z,512.00
2023-05-14T10:38:25.526Z,508.00
2023-05-14T10:39:25.555Z,532.00
2023-05-14T10:40:25.751Z,545.00
2023-05-14T10:41:25.586Z,555.00
2023-05-14T10:42:25.601Z,544.00
2023-05-14T10:43:25.605Z,525.00
2023-05-14T10:44:25.657Z,531.00
2023-05-14T10:45:25.693Z,528.00
2023-05-14T10:46:25.760Z,532.00
2023-05-14T10:47:26.013Z,537.00
2023-05-14T10:48:25.751Z,540.00
2023-05-14T10:49:39.726Z,543.00
2023-05-14T10:50:26.839Z,544.00
2023-05-14T10:51:25.789Z,546.00
2023-05-14T10:52:25.996Z,550.00
2023-05-14T10:53:25.713Z,552.00
2023-05-14T10:54:25.718Z,557.00
2023-05-14T10:55:25.729Z,549.00
2023-05-14T10:56:25.723Z,545.00
2023-05-14T10:57:25.691Z,546.00
2023-05-14T10:58:25.708Z,538.00
2023-05-14T10:59:25.685Z,557.00
2023-05-14T11:00:25.872Z,551.00
2023-05-14T11:01:25.690Z,540.00
2023-05-14T11:02:26.095Z,540.00
2023-05-14T11:03:25.704Z,557.00
2023-05-14T11:04:25.696Z,566.00
2023-05-14T11:05:25.653Z,568.00
2023-05-14T11:06:25.675Z,560.00
2023-05-14T11:07:25.669Z,542.00
2023-05-14T11:08:28.026Z,527.00
2023-05-14T11:09:25.625Z,546.00
2023-05-14T11:10:25.899Z,559.00
2023-05-14T11:11:25.647Z,555.00
2023-05-14T11:12:25.637Z,553.00
2023-05-14T11:13:25.645Z,561.00
2023-05-14T11:14:25.587Z,555.00
2023-05-14T11:15:25.610Z,559.00
2023-05-14T11:16:25.609Z,549.00
2023-05-14T11:17:26.027Z,536.00
2023-05-14T11:18:25.611Z,525.00
2023-05-14T11:19:25.539Z,552.00
2023-05-14T11:20:25.923Z,549.00
2023-05-14T11:21:25.586Z,558.00
2023-05-14T11:22:25.592Z,564.00
2023-05-14T11:23:25.523Z,555.00
2023-05-14T11:24:25.591Z,537.00
2023-05-14T11:25:25.494Z,538.00
2023-05-14T11:26:25.591Z,559.00
2023-05-14T11:27:25.514Z,573.00
2023-05-14T11:28:25.530Z,569.00
2023-05-14T11:29:25.471Z,553.00
2023-05-14T11:30:25.727Z,555.00
2023-05-14T11:31:25.502Z,561.00
2023-05-14T11:32:25.473Z,570.00
2023-05-14T11:33:25.488Z,581.00
2023-05-14T11:34:25.459Z,586.00
2023-05-14T11:35:25.441Z,577.00
2023-05-14T11:36:25.457Z,569.00
2023-05-14T11:37:25.442Z,577.00
2023-05-14T11:38:25.437Z,557.00
2023-05-14T11:39:25.415Z,545.00
2023-05-14T11:40:25.639Z,555.00
2023-05-14T11:41:25.400Z,556.00
2023-05-14T11:42:25.439Z,546.00
2023-05-14T11:43:25.419Z,552.00
2023-05-14T11:44:25.403Z,551.00
2023-05-14T11:45:25.386Z,534.00
2023-05-14T11:46:25.416Z,548.00
2023-05-14T11:47:25.398Z,543.00
2023-05-14T11:48:25.391Z,542.00
2023-05-14T11:49:25.382Z,541.00
2023-05-14T11:50:25.541Z,562.00
2023-05-14T11:51:25.359Z,570.00
2023-05-14T11:52:25.347Z,569.00
2023-05-14T11:53:25.355Z,580.00
2023-05-14T11:54:25.345Z,568.00
2023-05-14T11:55:25.281Z,572.00
2023-05-14T11:56:25.290Z,565.00
2023-05-14T11:57:26.022Z,569.00
2023-05-14T11:58:25.559Z,533.00
2023-05-14T11:59:25.291Z,541.00
2023-05-14T12:00:25.494Z,554.00
2023-05-14T12:01:25.304Z,547.00
2023-05-14T12:02:25.324Z,561.00
2023-05-14T12:03:25.858Z,536.00
2023-05-14T12:04:25.276Z,554.00
2023-05-14T12:05:25.209Z,547.00
2023-05-14T12:06:25.239Z,540.00
2023-05-14T12:07:25.249Z,577.00
2023-05-14T12:08:25.216Z,585.00
2023-05-14T12:09:25.203Z,576.00
2023-05-14T12:10:25.524Z,554.00
2023-05-14T12:11:25.173Z,573.00
2023-05-14T12:12:25.193Z,581.00
2023-05-14T12:13:25.169Z,561.00
2023-05-14T12:14:25.188Z,542.00